Schedule Details

Flight Number: CPX448
Departure: Minneapolis-St Paul International/Wold-Chamberlain Airport (KMSP) at N/A
Arrival: Salt Lake City International Airport (KSLC) at N/A
Route: LEINY6 LEINY RAP DDY NORDK6


Current Weather Information
KMSP 152053Z 29008KT 10SM FEW250 M11/M16 A3009 RMK AO2 SLP211 T11061161 51006
KSLC 152054Z 17018G29KT 10SM FEW045 FEW070 FEW090 11/M02 A2968 RMK AO2 PK WND 18032/1955 SLP037 TCU DSNT N-NE ACSL DSNT NW T01061022 58028

Route Map